createdAt,value
2019-04-14T00:02:41.043Z,33.60
2019-04-14T00:05:25.660Z,33.60
2019-04-14T00:08:13.317Z,33.60
2019-04-14T00:10:52.978Z,33.60
2019-04-14T00:13:47.752Z,33.60
2019-04-14T00:16:29.494Z,33.50
2019-04-14T00:19:08.753Z,33.60
2019-04-14T00:21:41.875Z,33.50
2019-04-14T00:24:21.250Z,33.60
2019-04-14T00:26:59.541Z,33.60
2019-04-14T00:29:47.943Z,33.60
2019-04-14T00:32:27.563Z,33.50
2019-04-14T00:35:18.801Z,33.60
2019-04-14T00:38:21.800Z,33.50
2019-04-14T00:41:15.805Z,33.50
2019-04-14T00:44:13.101Z,33.50
2019-04-14T00:46:56.078Z,33.40
2019-04-14T00:49:29.000Z,33.40
2019-04-14T00:52:06.158Z,33.50
2019-04-14T00:57:31.154Z,33.50
2019-04-14T01:00:10.381Z,33.50
2019-04-14T01:02:46.985Z,33.50
2019-04-14T01:05:37.493Z,33.40
2019-04-14T01:08:20.517Z,33.40
2019-04-14T01:11:03.027Z,33.40
2019-04-14T01:13:43.937Z,33.40
2019-04-14T01:16:23.848Z,33.40
2019-04-14T01:19:05.414Z,33.50
2019-04-14T01:21:50.208Z,33.40
2019-04-14T01:24:33.651Z,33.50
2019-04-14T01:27:14.588Z,33.50
2019-04-14T01:30:02.930Z,33.50
2019-04-14T01:32:50.095Z,32.70
2019-04-14T01:35:35.727Z,33.30
2019-04-14T01:38:10.269Z,33.30
2019-04-14T01:41:22.420Z,33.30
2019-04-14T01:43:58.233Z,33.30
2019-04-14T01:46:35.892Z,33.30
2019-04-14T01:49:20.361Z,33.30
2019-04-14T01:52:19.081Z,33.30
2019-04-14T01:55:20.048Z,33.30
2019-04-14T01:58:16.950Z,34.00
2019-04-14T02:01:31.065Z,33.30
2019-04-14T02:04:14.463Z,33.30
2019-04-14T02:06:46.234Z,33.30
2019-04-14T02:09:31.692Z,33.30
2019-04-14T02:12:17.014Z,33.30
2019-04-14T02:15:06.888Z,33.30
2019-04-14T02:17:43.889Z,33.30
2019-04-14T02:20:42.650Z,33.30
2019-04-14T02:23:30.672Z,33.30
2019-04-14T02:26:13.866Z,33.30
2019-04-14T02:28:50.889Z,33.30
2019-04-14T02:31:43.352Z,33.30
2019-04-14T02:34:36.222Z,33.30
2019-04-14T02:39:39.121Z,33.30
2019-04-14T02:45:00.354Z,33.20
2019-04-14T02:47:53.888Z,33.20
2019-04-14T02:50:10.847Z,33.30
2019-04-14T02:53:01.667Z,33.20
2019-04-14T02:56:02.013Z,33.30
2019-04-14T02:58:41.529Z,33.30
2019-04-14T03:01:42.205Z,33.90
2019-04-14T03:03:56.376Z,33.40
2019-04-14T03:09:30.582Z,33.30
2019-04-14T03:12:01.633Z,33.20
2019-04-14T03:14:45.503Z,33.10
2019-04-14T03:17:44.387Z,33.20
2019-04-14T03:20:40.070Z,33.20
2019-04-14T03:23:30.666Z,33.20
2019-04-14T03:26:15.323Z,33.10
2019-04-14T03:28:56.463Z,33.10
2019-04-14T03:32:00.102Z,33.10
2019-04-14T03:40:01.171Z,33.20
2019-04-14T03:42:49.015Z,33.10
2019-04-14T03:45:30.109Z,33.20
2019-04-14T03:48:22.411Z,33.10
2019-04-14T03:50:39.408Z,33.10
2019-04-14T03:53:36.088Z,33.10
2019-04-14T03:56:14.384Z,33.10
2019-04-14T03:58:48.605Z,33.20
2019-04-14T04:01:32.319Z,33.10
2019-04-14T04:04:18.368Z,33.10
2019-04-14T04:06:59.517Z,33.10
2019-04-14T04:09:43.230Z,33.10
2019-04-14T04:12:22.847Z,33.10
2019-04-14T04:15:01.947Z,33.10
2019-04-14T04:17:45.147Z,33.00
2019-04-14T04:20:33.442Z,33.10
2019-04-14T04:23:47.451Z,33.10
2019-04-14T04:26:45.400Z,33.10
2019-04-14T04:29:37.851Z,33.00
2019-04-14T04:32:49.827Z,33.00
2019-04-14T04:35:34.709Z,33.00
2019-04-14T04:38:35.585Z,33.00
2019-04-14T04:41:14.702Z,33.00
2019-04-14T04:43:53.815Z,33.00
2019-04-14T04:46:37.045Z,33.00
2019-04-14T04:49:11.648Z,33.00
2019-04-14T04:51:42.476Z,32.90
2019-04-14T04:54:18.878Z,32.90
2019-04-14T04:56:53.747Z,33.00
2019-04-14T04:59:29.952Z,33.00
2019-04-14T05:02:13.446Z,32.90
2019-04-14T05:04:43.919Z,33.00
2019-04-14T05:07:20.866Z,32.90
2019-04-14T05:10:39.288Z,32.90
2019-04-14T05:13:21.110Z,32.90
2019-04-14T05:16:06.322Z,32.90
2019-04-14T05:19:13.964Z,33.00
2019-04-14T05:21:45.250Z,32.90
2019-04-14T05:24:35.147Z,32.90
2019-04-14T05:27:30.146Z,32.90
2019-04-14T05:30:11.525Z,32.90
2019-04-14T05:32:54.645Z,32.90
2019-04-14T05:35:35.845Z,32.90
2019-04-14T05:38:16.922Z,32.80
2019-04-14T05:40:51.922Z,32.80
2019-04-14T05:43:41.575Z,32.50
2019-04-14T05:46:16.355Z,32.80
2019-04-14T05:48:56.166Z,32.80
2019-04-14T05:51:43.888Z,32.80
2019-04-14T05:54:20.931Z,32.80
2019-04-14T05:57:08.981Z,32.80
2019-04-14T05:59:49.019Z,32.80
2019-04-14T06:02:44.678Z,32.70
2019-04-14T06:05:36.160Z,32.70
2019-04-14T06:08:12.784Z,32.70
2019-04-14T06:10:56.732Z,32.70
2019-04-14T06:13:29.429Z,32.70
2019-04-14T06:16:16.051Z,32.80
2019-04-14T06:18:54.385Z,32.70
2019-04-14T06:21:25.554Z,32.70
2019-04-14T06:24:17.886Z,32.70
2019-04-14T06:27:02.867Z,32.60
2019-04-14T06:29:45.796Z,32.70
2019-04-14T06:32:35.892Z,32.60
2019-04-14T06:35:48.798Z,32.60
2019-04-14T06:38:29.582Z,32.60
2019-04-14T06:41:12.626Z,32.60
2019-04-14T06:43:57.121Z,32.60
2019-04-14T06:46:39.514Z,32.70
2019-04-14T06:49:19.983Z,32.60
2019-04-14T06:51:57.108Z,32.50
2019-04-14T06:54:37.026Z,32.60
2019-04-14T06:57:19.849Z,32.50
2019-04-14T06:59:58.309Z,32.50
2019-04-14T07:02:49.432Z,32.50
2019-04-14T07:05:25.277Z,32.50
2019-04-14T07:08:00.611Z,32.50
2019-04-14T07:10:34.815Z,32.50
2019-04-14T07:13:19.383Z,32.50
2019-04-14T07:16:00.424Z,32.50
2019-04-14T07:18:45.202Z,32.60
2019-04-14T07:21:36.496Z,32.50
2019-04-14T07:24:12.962Z,32.40
2019-04-14T07:27:29.869Z,32.50
2019-04-14T07:30:13.946Z,32.50
2019-04-14T07:33:07.746Z,32.50
2019-04-14T07:36:17.294Z,32.40
2019-04-14T07:39:12.519Z,32.40
2019-04-14T07:42:13.538Z,32.40
2019-04-14T07:45:24.412Z,32.50
2019-04-14T07:48:17.066Z,32.40
2019-04-14T07:51:02.425Z,32.40
2019-04-14T07:54:02.731Z,32.40
2019-04-14T07:57:11.458Z,32.30
2019-04-14T08:00:13.234Z,32.40
2019-04-14T08:03:04.935Z,33.00
2019-04-14T08:05:39.495Z,32.40
2019-04-14T08:08:12.482Z,32.30
2019-04-14T08:10:48.221Z,32.30
2019-04-14T08:13:23.268Z,32.30
2019-04-14T08:15:53.791Z,32.10
2019-04-14T08:18:24.974Z,32.30
2019-04-14T08:20:58.691Z,32.20
2019-04-14T08:23:30.230Z,32.20
2019-04-14T08:26:01.942Z,32.20
2019-04-14T08:28:35.570Z,32.20
2019-04-14T08:31:05.837Z,32.20
2019-04-14T08:33:42.022Z,32.20
2019-04-14T08:36:24.967Z,32.20
2019-04-14T08:39:01.498Z,32.70
2019-04-14T08:41:39.779Z,33.60
2019-04-14T08:44:18.787Z,33.10
2019-04-14T08:47:16.388Z,33.30
2019-04-14T08:49:52.283Z,33.20
2019-04-14T08:52:51.168Z,33.30
2019-04-14T08:55:48.032Z,33.20
2019-04-14T08:58:27.624Z,34.10
2019-04-14T09:01:11.823Z,33.40
2019-04-14T09:04:03.824Z,33.30
2019-04-14T09:06:51.758Z,33.20
2019-04-14T09:09:54.777Z,33.20
2019-04-14T09:12:32.042Z,33.00
2019-04-14T09:15:04.253Z,32.90
2019-04-14T09:17:38.241Z,32.90
2019-04-14T09:20:16.239Z,33.00
2019-04-14T09:22:51.069Z,32.90
2019-04-14T09:25:25.594Z,32.90
2019-04-14T09:27:55.978Z,33.10
2019-04-14T09:30:26.889Z,33.00
2019-04-14T09:33:02.599Z,33.00
2019-04-14T09:35:34.484Z,32.90
2019-04-14T09:38:05.777Z,32.90
2019-04-14T09:40:36.786Z,33.80
2019-04-14T09:43:11.282Z,33.10
2019-04-14T09:45:43.344Z,33.10
2019-04-14T09:48:16.130Z,33.10
2019-04-14T09:50:48.276Z,32.90
2019-04-14T09:53:24.301Z,32.90
2019-04-14T09:55:59.858Z,32.90
2019-04-14T09:58:30.557Z,32.80
2019-04-14T10:01:01.223Z,32.70
2019-04-14T10:03:32.267Z,32.70
2019-04-14T10:06:04.884Z,32.70
2019-04-14T10:08:42.274Z,32.70
2019-04-14T10:11:15.113Z,33.10
2019-04-14T10:13:45.793Z,33.30
2019-04-14T10:16:18.221Z,33.50
2019-04-14T10:18:49.366Z,33.50
2019-04-14T10:21:19.999Z,33.50
2019-04-14T10:23:52.235Z,33.70
2019-04-14T10:26:24.802Z,33.60
2019-04-14T10:28:56.035Z,33.60
2019-04-14T10:31:28.541Z,33.60
2019-04-14T10:33:59.554Z,33.60
2019-04-14T10:36:34.112Z,33.70
2019-04-14T10:39:07.399Z,33.50
2019-04-14T10:41:37.982Z,33.50
2019-04-14T10:44:12.007Z,33.60
2019-04-14T10:46:42.117Z,33.60
2019-04-14T10:49:13.239Z,33.70
2019-04-14T10:51:47.834Z,33.80
2019-04-14T10:54:21.595Z,33.80
2019-04-14T10:56:53.998Z,33.80
2019-04-14T10:59:26.953Z,33.80
2019-04-14T11:01:59.496Z,33.80
2019-04-14T11:04:32.963Z,33.70
2019-04-14T11:07:12.510Z,33.60
2019-04-14T11:09:43.539Z,33.70
2019-04-14T11:12:17.352Z,33.60
2019-04-14T11:14:50.716Z,34.20
2019-04-14T11:17:21.898Z,33.20
2019-04-14T11:19:54.870Z,33.10
2019-04-14T11:22:25.913Z,33.10
2019-04-14T11:24:57.234Z,33.10
2019-04-14T11:27:32.471Z,33.10
2019-04-14T11:30:07.582Z,33.30
2019-04-14T11:33:06.721Z,33.30
2019-04-14T11:35:59.253Z,33.30
2019-04-14T11:38:38.705Z,33.20
2019-04-14T11:41:13.861Z,33.10
2019-04-14T11:43:44.984Z,33.00
2019-04-14T11:46:18.201Z,32.80
2019-04-14T11:48:52.177Z,32.90
2019-04-14T11:51:31.993Z,32.90
2019-04-14T11:54:02.227Z,32.70
2019-04-14T11:56:34.613Z,32.60
2019-04-14T11:59:04.925Z,32.40
2019-04-14T12:01:49.150Z,32.30
2019-04-14T12:04:40.275Z,32.10
2019-04-14T12:07:32.871Z,31.80
2019-04-14T12:10:13.520Z,31.40
2019-04-14T12:12:46.316Z,31.00
2019-04-14T12:15:20.794Z,30.70
2019-04-14T12:17:51.674Z,30.60
2019-04-14T12:20:23.641Z,30.30
2019-04-14T12:22:56.202Z,29.90
2019-04-14T12:25:31.315Z,30.00
2019-04-14T12:28:06.976Z,30.60
2019-04-14T12:30:37.770Z,30.60
2019-04-14T12:33:12.264Z,30.60
2019-04-14T12:35:44.509Z,29.80
2019-04-14T12:38:20.171Z,28.80
2019-04-14T12:40:57.768Z,28.50
2019-04-14T12:43:50.094Z,28.30
2019-04-14T12:46:46.161Z,28.00
2019-04-14T12:49:32.452Z,28.10
2019-04-14T12:52:27.922Z,27.90
2019-04-14T12:54:59.045Z,28.00
2019-04-14T12:57:46.486Z,28.20
2019-04-14T13:00:37.011Z,28.30
2019-04-14T13:03:24.692Z,28.40
2019-04-14T13:05:55.784Z,28.50
2019-04-14T13:08:26.168Z,28.70
2019-04-14T13:11:01.476Z,28.70
2019-04-14T13:13:36.382Z,28.90
2019-04-14T13:16:08.958Z,28.90
2019-04-14T13:18:39.353Z,29.00
2019-04-14T13:21:12.333Z,29.10
2019-04-14T13:23:42.666Z,29.10
2019-04-14T13:26:15.754Z,29.10
2019-04-14T13:28:46.009Z,29.20
2019-04-14T13:31:17.354Z,29.30
2019-04-14T13:33:51.801Z,29.20
2019-04-14T13:36:22.774Z,29.20
2019-04-14T13:38:55.579Z,29.20
2019-04-14T13:41:28.664Z,29.50
2019-04-14T13:44:00.222Z,29.50
2019-04-14T13:46:31.364Z,29.50
2019-04-14T13:49:02.193Z,29.50
2019-04-14T13:51:37.565Z,29.60
2019-04-14T13:54:07.952Z,29.60
2019-04-14T13:56:41.232Z,29.60
2019-04-14T13:59:16.890Z,29.70
2019-04-14T14:01:48.040Z,29.70
2019-04-14T14:04:18.742Z,29.80
2019-04-14T14:06:51.182Z,29.80
2019-04-14T14:09:21.574Z,29.80
2019-04-14T14:12:09.074Z,29.90
2019-04-14T14:15:04.074Z,29.90
2019-04-14T14:17:45.383Z,30.00
2019-04-14T14:20:47.464Z,29.90
2019-04-14T14:23:36.030Z,30.00
2019-04-14T14:26:14.176Z,29.90
2019-04-14T14:28:47.915Z,29.90
2019-04-14T14:31:22.507Z,29.90
2019-04-14T14:33:53.234Z,29.90
2019-04-14T14:36:24.054Z,29.80
2019-04-14T14:38:59.190Z,29.80
2019-04-14T14:41:33.562Z,29.80
2019-04-14T14:44:04.923Z,29.80
2019-04-14T14:47:10.025Z,29.80
2019-04-14T14:50:00.881Z,29.70
2019-04-14T14:52:33.687Z,29.80
2019-04-14T14:55:06.795Z,29.70
2019-04-14T14:57:37.178Z,29.80
2019-04-14T15:00:25.447Z,29.80
2019-04-14T15:02:57.707Z,29.80
2019-04-14T15:05:31.749Z,29.90
2019-04-14T15:08:02.248Z,29.90
2019-04-14T15:10:35.459Z,29.90
2019-04-14T15:13:11.741Z,30.00
2019-04-14T15:15:42.991Z,30.00
2019-04-14T15:18:14.406Z,30.00
2019-04-14T15:20:50.828Z,30.00
2019-04-14T15:23:25.353Z,30.00
2019-04-14T15:25:55.825Z,30.00
2019-04-14T15:28:27.974Z,30.00
2019-04-14T15:31:00.054Z,30.00
2019-04-14T15:33:35.802Z,30.00
2019-04-14T15:36:07.933Z,30.00
2019-04-14T15:38:40.986Z,30.10
2019-04-14T15:41:12.285Z,30.20
2019-04-14T15:43:44.477Z,30.20
2019-04-14T15:46:15.921Z,30.00
2019-04-14T15:48:50.359Z,30.00
2019-04-14T15:51:21.391Z,30.00
2019-04-14T15:53:51.768Z,30.00
2019-04-14T15:56:47.595Z,30.00
2019-04-14T15:59:42.696Z,30.00
2019-04-14T16:02:22.344Z,30.00
2019-04-14T16:05:32.359Z,30.00
2019-04-14T16:08:22.739Z,30.00
2019-04-14T16:11:13.898Z,30.10
2019-04-14T16:14:04.945Z,30.00
2019-04-14T16:16:58.422Z,30.00
2019-04-14T16:19:34.185Z,30.00
2019-04-14T16:22:04.585Z,30.10
2019-04-14T16:24:39.905Z,30.10
2019-04-14T16:27:28.778Z,30.20
2019-04-14T16:30:19.308Z,30.20
2019-04-14T16:33:12.245Z,30.30
2019-04-14T16:35:42.894Z,30.40
2019-04-14T16:38:13.331Z,30.30
2019-04-14T16:40:44.480Z,30.30
2019-04-14T16:43:17.210Z,30.30
2019-04-14T16:45:48.471Z,30.30
2019-04-14T16:48:20.790Z,30.30
2019-04-14T16:50:54.621Z,30.30
2019-04-14T16:53:30.013Z,30.30
2019-04-14T16:56:29.169Z,30.40
2019-04-14T16:59:13.018Z,30.40
2019-04-14T17:01:47.394Z,30.40
2019-04-14T17:04:21.299Z,30.50
2019-04-14T17:06:53.681Z,30.50
2019-04-14T17:09:26.662Z,30.60
2019-04-14T17:12:00.396Z,30.60
2019-04-14T17:14:43.895Z,30.60
2019-04-14T17:17:47.382Z,30.60
2019-04-14T17:20:44.334Z,30.60
2019-04-14T17:23:43.442Z,30.60
2019-04-14T17:26:25.301Z,30.70
2019-04-14T17:29:10.989Z,30.90
2019-04-14T17:32:11.759Z,30.70
2019-04-14T17:35:07.963Z,30.80
2019-04-14T17:37:50.604Z,30.80
2019-04-14T17:40:46.412Z,30.90
2019-04-14T17:43:22.542Z,31.00
2019-04-14T17:46:08.314Z,31.00
2019-04-14T17:48:57.930Z,31.00
2019-04-14T17:51:50.688Z,31.10
2019-04-14T17:54:43.103Z,31.00
2019-04-14T17:57:51.033Z,31.10
2019-04-14T18:00:40.896Z,31.20
2019-04-14T18:03:29.175Z,31.00
2019-04-14T18:06:13.864Z,31.10
2019-04-14T18:09:06.915Z,31.20
2019-04-14T18:11:56.076Z,31.10
2019-04-14T18:14:45.950Z,31.10
2019-04-14T18:17:36.689Z,31.10
2019-04-14T18:20:13.113Z,31.10
2019-04-14T18:22:47.757Z,31.10
2019-04-14T18:25:20.389Z,31.80
2019-04-14T18:28:10.717Z,31.20
2019-04-14T18:30:47.846Z,31.10
2019-04-14T18:33:27.558Z,31.10
2019-04-14T18:36:08.237Z,31.10
2019-04-14T18:39:08.790Z,31.10
2019-04-14T18:41:50.012Z,31.20
2019-04-14T18:44:31.301Z,30.90
2019-04-14T18:47:13.729Z,31.10
2019-04-14T18:50:06.048Z,31.10
2019-04-14T18:52:51.875Z,31.10
2019-04-14T18:55:43.906Z,31.10
2019-04-14T18:58:39.693Z,31.10
2019-04-14T19:01:14.752Z,31.10
2019-04-14T19:03:48.720Z,31.10
2019-04-14T19:06:19.787Z,31.10
2019-04-14T19:08:53.639Z,31.20
2019-04-14T19:11:49.838Z,31.10
2019-04-14T19:14:31.106Z,31.10
2019-04-14T19:17:07.668Z,31.10
2019-04-14T19:19:41.374Z,31.10
2019-04-14T19:22:15.286Z,31.10
2019-04-14T19:24:49.336Z,31.10
2019-04-14T19:27:22.675Z,31.10
2019-04-14T19:29:55.737Z,31.20
2019-04-14T19:32:27.747Z,31.20
2019-04-14T19:35:02.676Z,31.20
2019-04-14T19:37:33.653Z,31.10
2019-04-14T19:40:05.743Z,31.10
2019-04-14T19:42:39.588Z,31.10
2019-04-14T19:45:16.361Z,31.20
2019-04-14T19:47:47.403Z,31.20
2019-04-14T19:50:20.296Z,31.20
2019-04-14T19:52:51.848Z,31.20
2019-04-14T19:55:25.237Z,31.20
2019-04-14T19:57:56.949Z,31.20
2019-04-14T20:00:30.197Z,31.20
2019-04-14T20:03:00.868Z,31.20
2019-04-14T20:05:34.658Z,31.20
2019-04-14T20:08:06.337Z,31.20
2019-04-14T20:10:37.052Z,31.20
2019-04-14T20:13:09.267Z,31.20
2019-04-14T20:15:59.302Z,31.20
2019-04-14T20:19:10.304Z,31.20
2019-04-14T20:21:58.159Z,31.10
2019-04-14T20:24:35.674Z,31.20
2019-04-14T20:27:47.260Z,31.20
2019-04-14T20:30:29.096Z,31.80
2019-04-14T20:33:00.263Z,31.10
2019-04-14T20:35:31.555Z,31.10
2019-04-14T20:38:02.614Z,31.20
2019-04-14T20:40:33.753Z,31.10
2019-04-14T20:43:06.009Z,31.20
2019-04-14T20:45:40.379Z,31.20
2019-04-14T20:48:12.179Z,31.20
2019-04-14T20:50:50.573Z,31.10
2019-04-14T20:53:25.249Z,31.10
2019-04-14T20:56:02.788Z,31.20
2019-04-14T20:58:36.403Z,31.10
2019-04-14T21:01:09.189Z,31.20
2019-04-14T21:03:57.480Z,31.20
2019-04-14T21:06:56.325Z,31.20
2019-04-14T21:09:37.106Z,31.10
2019-04-14T21:12:22.724Z,31.10
2019-04-14T21:15:05.498Z,31.10
2019-04-14T21:17:59.070Z,31.20
2019-04-14T21:20:56.077Z,31.20
2019-04-14T21:23:57.843Z,31.20
2019-04-14T21:26:51.910Z,31.20
2019-04-14T21:29:35.303Z,31.20
2019-04-14T21:32:13.505Z,31.20
2019-04-14T21:35:07.081Z,31.20
2019-04-14T21:38:01.303Z,31.20
2019-04-14T21:40:54.349Z,31.20
2019-04-14T21:43:25.717Z,31.20
2019-04-14T21:45:58.535Z,31.20
2019-04-14T21:48:32.426Z,31.20
2019-04-14T21:51:03.422Z,31.20
2019-04-14T21:53:35.493Z,31.10
2019-04-14T21:56:13.190Z,31.20
2019-04-14T21:58:50.078Z,31.20
2019-04-14T22:01:54.709Z,31.20
2019-04-14T22:04:51.725Z,31.20
2019-04-14T22:07:34.518Z,31.20
2019-04-14T22:10:40.822Z,31.20
2019-04-14T22:13:11.526Z,31.20
2019-04-14T22:15:46.823Z,31.20
2019-04-14T22:18:22.150Z,31.20
2019-04-14T22:20:54.845Z,31.30
2019-04-14T22:23:28.273Z,31.20
2019-04-14T22:26:03.122Z,31.20
2019-04-14T22:28:36.451Z,31.20
2019-04-14T22:31:07.561Z,31.20
2019-04-14T22:33:38.061Z,31.20
2019-04-14T22:36:08.581Z,31.20
2019-04-14T22:38:39.024Z,31.20
2019-04-14T22:41:10.285Z,31.30
2019-04-14T22:43:42.008Z,31.20
2019-04-14T22:46:12.665Z,31.20
2019-04-14T22:48:43.375Z,31.20
2019-04-14T22:51:14.028Z,31.20
2019-04-14T22:53:44.795Z,31.20
2019-04-14T22:56:17.438Z,31.20
2019-04-14T22:58:50.449Z,31.20
2019-04-14T23:01:24.689Z,31.10
2019-04-14T23:04:21.905Z,31.20
2019-04-14T23:07:11.565Z,31.10
2019-04-14T23:09:52.989Z,31.10
2019-04-14T23:12:48.186Z,31.10
2019-04-14T23:15:39.080Z,31.10
2019-04-14T23:18:25.713Z,31.10
2019-04-14T23:21:24.626Z,31.10
2019-04-14T23:24:16.932Z,31.10
2019-04-14T23:26:52.754Z,31.10
2019-04-14T23:29:23.819Z,31.10
2019-04-14T23:31:57.291Z,31.10
2019-04-14T23:34:28.573Z,31.10
2019-04-14T23:36:59.404Z,31.10
2019-04-14T23:39:31.754Z,31.10
2019-04-14T23:42:02.689Z,31.10
2019-04-14T23:44:33.234Z,31.10
2019-04-14T23:47:05.549Z,31.10
2019-04-14T23:49:35.905Z,31.10
2019-04-14T23:52:06.917Z,31.10
2019-04-14T23:54:37.265Z,31.10
2019-04-14T23:57:08.558Z,31.10
2019-04-14T23:59:38.941Z,31.10
